Wetterdaten: Montag, 16.10.2017
Datum Zeit Temp. A. Temp. A. min Temp. A. max Feuchte A. Bod.Feucht 4 Luftdruck Regen Wind Richtung Richtung Sonnenschein ET Solar Taupunkt Windchill Windben Empfang
16.10.2017 00:00 11,3 C 11,3 C 11,4 C 93 % 0 cb 1026,2 hPa 0,0 l/m 0,0 km/h (0 Bft) N 0 0 min 0,000 mm 0 W/m 10,2 C 11,3 C 0,0 km/h (0 Bft) 100,00 %
16.10.2017 00:10 11,2 C 11,2 C 11,3 C 94 % 0 cb 1026,2 hPa 0,0 l/m 0,0 km/h (0 Bft) N 0 0 min 0,000 mm 0 W/m 10,3 C 11,2 C 0,0 km/h (0 Bft) 100,00 %
16.10.2017 00:20 11,1 C 11,1 C 11,2 C 93 % 0 cb 1026,4 hPa 0,0 l/m 0,0 km/h (0 Bft) N 0 0 min 0,000 mm 0 W/m 10,0 C 11,1 C 0,0 km/h (0 Bft) 100,00 %
16.10.2017 00:30 11,0 C 11,0 C 11,1 C 94 % 0 cb 1026,4 hPa 0,0 l/m 0,0 km/h (0 Bft) N 0 0 min 0,000 mm 0 W/m 10,1 C 11,0 C 0,0 km/h (0 Bft) 100,00 %
16.10.2017 00:40 10,9 C 10,9 C 11,1 C 94 % 0 cb 1026,3 hPa 0,0 l/m 0,0 km/h (0 Bft) O 90 0 min 0,000 mm 0 W/m 10,0 C 10,9 C 3,2 km/h (1 Bft) 100,00 %
16.10.2017 00:50 10,9 C 10,9 C 11,0 C 95 % 0 cb 1026,3 hPa 0,0 l/m 0,0 km/h (0 Bft) O 90 0 min 0,000 mm 0 W/m 10,1 C 10,9 C 3,2 km/h (1 Bft) 100,00 %
16.10.2017 01:00 10,9 C 10,9 C 10,9 C 95 % 0 cb 1026,3 hPa 0,0 l/m 0,0 km/h (0 Bft) O 90 0 min 0,000 mm 0 W/m 10,1 C 10,9 C 3,2 km/h (1 Bft) 100,00 %
16.10.2017 01:10 10,8 C 10,8 C 10,9 C 95 % 0 cb 1026,2 hPa 0,0 l/m 0,0 km/h (0 Bft) N 0 0 min 0,000 mm 0 W/m 10,0 C 10,8 C 0,0 km/h (0 Bft) 100,00 %
16.10.2017 01:20 10,7 C 10,7 C 10,8 C 95 % 0 cb 1026,3 hPa 0,0 l/m 0,0 km/h (0 Bft) O 90 0 min 0,000 mm 0 W/m 9,9 C 10,7 C 1,6 km/h (1 Bft) 100,00 %
16.10.2017 01:30 10,5 C 10,5 C 10,7 C 95 % 0 cb 1026,3 hPa 0,0 l/m 0,0 km/h (0 Bft) N 0 0 min 0,000 mm 0 W/m 9,7 C 10,5 C 0,0 km/h (0 Bft) 99,12 %
16.10.2017 01:40 10,4 C 10,4 C 10,5 C 95 % 0 cb 1026,3 hPa 0,0 l/m 0,0 km/h (0 Bft) N 0 0 min 0,000 mm 0 W/m 9,6 C 10,4 C 0,0 km/h (0 Bft) 100,00 %
16.10.2017 01:50 10,4 C 10,4 C 10,4 C 95 % 0 cb 1026,4 hPa 0,0 l/m 0,0 km/h (0 Bft) N 0 0 min 0,000 mm 0 W/m 9,6 C 10,4 C 0,0 km/h (0 Bft) 100,00 %
16.10.2017 02:00 10,4 C 10,4 C 10,4 C 95 % 0 cb 1026,4 hPa 0,0 l/m 0,0 km/h (0 Bft) N 0 0 min 0,000 mm 0 W/m 9,6 C 10,4 C 0,0 km/h (0 Bft) 100,00 %
16.10.2017 02:10 10,3 C 10,3 C 10,4 C 95 % 0 cb 1026,4 hPa 0,0 l/m 0,0 km/h (0 Bft) N 0 0 min 0,000 mm 0 W/m 9,5 C 10,3 C 0,0 km/h (0 Bft) 100,00 %
16.10.2017 02:20 10,1 C 10,1 C 10,3 C 95 % 0 cb 1026,3 hPa 0,0 l/m 0,0 km/h (0 Bft) N 0 0 min 0,000 mm 0 W/m 9,3 C 10,1 C 0,0 km/h (0 Bft) 100,00 %
16.10.2017 02:30 10,0 C 10,0 C 10,2 C 95 % 0 cb 1026,3 hPa 0,0 l/m 0,0 km/h (0 Bft) N 0 0 min 0,000 mm 0 W/m 9,2 C 10,0 C 0,0 km/h (0 Bft) 100,00 %
16.10.2017 02:40 10,0 C 10,0 C 10,1 C 96 % 0 cb 1026,3 hPa 0,0 l/m 0,0 km/h (0 Bft) N 0 0 min 0,000 mm 0 W/m 9,4 C 10,0 C 0,0 km/h (0 Bft) 100,00 %
16.10.2017 02:50 9,9 C 9,9 C 10,0 C 96 % 0 cb 1026,4 hPa 0,0 l/m 0,0 km/h (0 Bft) O 90 0 min 0,000 mm 0 W/m 9,3 C 9,9 C 1,6 km/h (1 Bft) 100,00 %
16.10.2017 03:00 9,8 C 9,8 C 9,9 C 95 % 0 cb 1026,4 hPa 0,0 l/m 0,0 km/h (0 Bft) N 0 0 min 0,000 mm 0 W/m 9,0 C 9,8 C 0,0 km/h (0 Bft) 100,00 %
16.10.2017 03:10 9,5 C 9,5 C 9,8 C 95 % 0 cb 1026,3 hPa 0,0 l/m 0,0 km/h (0 Bft) N 0 0 min 0,000 mm 0 W/m 8,7 C 9,5 C 0,0 km/h (0 Bft) 100,00 %
16.10.2017 03:20 9,7 C 9,4 C 9,7 C 96 % 0 cb 1026,1 hPa 0,0 l/m 0,0 km/h (0 Bft) N 0 0 min 0,000 mm 0 W/m 9,1 C 9,7 C 0,0 km/h (0 Bft) 100,00 %
16.10.2017 03:30 9,7 C 9,7 C 9,8 C 96 % 0 cb 1026,1 hPa 0,0 l/m 0,0 km/h (0 Bft) N 0 0 min 0,000 mm 0 W/m 9,1 C 9,7 C 0,0 km/h (0 Bft) 100,00 %
16.10.2017 03:40 9,8 C 9,7 C 9,8 C 96 % 0 cb 1025,9 hPa 0,0 l/m 0,0 km/h (0 Bft) N 0 0 min 0,000 mm 0 W/m 9,2 C 9,8 C 0,0 km/h (0 Bft) 100,00 %
16.10.2017 03:50 9,8 C 9,8 C 9,8 C 96 % 0 cb 1025,9 hPa 0,0 l/m 0,0 km/h (0 Bft) N 0 0 min 0,000 mm 0 W/m 9,2 C 9,8 C 0,0 km/h (0 Bft) 100,00 %
16.10.2017 04:00 9,8 C 9,8 C 9,8 C 96 % 0 cb 1026,0 hPa 0,0 l/m 0,0 km/h (0 Bft) N 0 0 min 0,000 mm 0 W/m 9,2 C 9,8 C 0,0 km/h (0 Bft) 100,00 %
16.10.2017 04:10 9,8 C 9,8 C 9,8 C 96 % 0 cb 1025,9 hPa 0,0 l/m 0,0 km/h (0 Bft) N 0 0 min 0,000 mm 0 W/m 9,2 C 9,8 C 0,0 km/h (0 Bft) 100,00 %
16.10.2017 04:20 10,4 C 9,8 C 10,4 C 97 % 0 cb 1025,9 hPa 0,0 l/m 0,0 km/h (0 Bft) N 0 0 min 0,000 mm 0 W/m 9,9 C 10,4 C 0,0 km/h (0 Bft) 100,00 %
16.10.2017 04:30 10,4 C 10,3 C 10,4 C 97 % 0 cb 1025,9 hPa 0,0 l/m 0,0 km/h (0 Bft) N 0 0 min 0,000 mm 0 W/m 9,9 C 10,4 C 0,0 km/h (0 Bft) 100,00 %
16.10.2017 04:40 10,3 C 10,3 C 10,4 C 97 % 0 cb 1026,0 hPa 0,0 l/m 0,0 km/h (0 Bft) N 0 0 min 0,000 mm 0 W/m 9,8 C 10,3 C 0,0 km/h (0 Bft) 100,00 %
16.10.2017 04:50 10,3 C 10,2 C 10,4 C 96 % 0 cb 1026,0 hPa 0,0 l/m 0,0 km/h (0 Bft) N 0 0 min 0,000 mm 0 W/m 9,7 C 10,3 C 0,0 km/h (0 Bft) 100,00 %
16.10.2017 05:00 10,1 C 10,1 C 10,3 C 96 % 0 cb 1026,0 hPa 0,0 l/m 0,0 km/h (0 Bft) N 0 0 min 0,000 mm 0 W/m 9,5 C 10,1 C 0,0 km/h (0 Bft) 100,00 %
16.10.2017 05:10 9,9 C 9,9 C 10,1 C 96 % 0 cb 1025,9 hPa 0,0 l/m 0,0 km/h (0 Bft) N 0 0 min 0,000 mm 0 W/m 9,3 C 9,9 C 0,0 km/h (0 Bft) 100,00 %
16.10.2017 05:20 10,1 C 9,9 C 10,1 C 97 % 0 cb 1025,8 hPa 0,0 l/m 0,0 km/h (0 Bft) O-NO 67 0 min 0,000 mm 0 W/m 9,6 C 10,1 C 3,2 km/h (1 Bft) 100,00 %
16.10.2017 05:30 10,0 C 10,0 C 10,1 C 97 % 0 cb 1025,7 hPa 0,0 l/m 0,0 km/h (0 Bft) O-NO 67 0 min 0,000 mm 0 W/m 9,5 C 10,0 C 1,6 km/h (1 Bft) 100,00 %
16.10.2017 05:40 9,7 C 9,7 C 10,0 C 96 % 0 cb 1025,7 hPa 0,0 l/m 0,0 km/h (0 Bft) N 0 0 min 0,000 mm 0 W/m 9,1 C 9,7 C 0,0 km/h (0 Bft) 100,00 %
16.10.2017 05:50 9,1 C 9,1 C 9,7 C 95 % 0 cb 1025,8 hPa 0,0 l/m 0,0 km/h (0 Bft) N 0 0 min 0,000 mm 0 W/m 8,3 C 9,1 C 0,0 km/h (0 Bft) 100,00 %
16.10.2017 06:00 8,8 C 8,8 C 9,1 C 96 % 0 cb 1025,9 hPa 0,0 l/m 0,0 km/h (0 Bft) N 0 0 min 0,000 mm 0 W/m 8,2 C 8,8 C 0,0 km/h (0 Bft) 100,00 %
16.10.2017 06:10 8,9 C 8,8 C 8,9 C 96 % 0 cb 1026,0 hPa 0,0 l/m 0,0 km/h (0 Bft) N 0 0 min 0,000 mm 0 W/m 8,3 C 8,9 C 0,0 km/h (0 Bft) 100,00 %
16.10.2017 06:20 9,1 C 8,9 C 9,1 C 97 % 0 cb 1025,7 hPa 0,0 l/m 0,0 km/h (0 Bft) N 0 0 min 0,000 mm 0 W/m 8,6 C 9,1 C 0,0 km/h (0 Bft) 100,00 %
16.10.2017 06:30 9,3 C 9,1 C 9,3 C 97 % 0 cb 1025,8 hPa 0,0 l/m 0,0 km/h (0 Bft) N 0 0 min 0,000 mm 0 W/m 8,8 C 9,3 C 0,0 km/h (0 Bft) 100,00 %
16.10.2017 06:40 9,3 C 9,3 C 9,3 C 97 % 0 cb 1025,7 hPa 0,0 l/m 0,0 km/h (0 Bft) N 0 0 min 0,000 mm 0 W/m 8,8 C 9,3 C 0,0 km/h (0 Bft) 100,00 %
16.10.2017 06:50 9,6 C 9,3 C 9,6 C 97 % 0 cb 1025,8 hPa 0,0 l/m 0,0 km/h (0 Bft) N 0 0 min 0,000 mm 0 W/m 9,1 C 9,6 C 0,0 km/h (0 Bft) 100,00 %
16.10.2017 07:00 9,4 C 9,4 C 9,6 C 97 % 0 cb 1025,7 hPa 0,0 l/m 0,0 km/h (0 Bft) N 0 0 min 0,000 mm 0 W/m 8,9 C 9,4 C 0,0 km/h (0 Bft) 100,00 %
16.10.2017 07:10 9,2 C 9,2 C 9,4 C 96 % 0 cb 1025,7 hPa 0,0 l/m 0,0 km/h (0 Bft) N 0 0 min 0,000 mm 0 W/m 8,6 C 9,2 C 0,0 km/h (0 Bft) 98,25 %
16.10.2017 07:20 8,8 C 8,8 C 9,2 C 96 % 0 cb 1025,8 hPa 0,0 l/m 0,0 km/h (0 Bft) N 0 0 min 0,000 mm 0 W/m 8,2 C 8,8 C 0,0 km/h (0 Bft) 100,00 %
16.10.2017 07:30 8,6 C 8,6 C 8,8 C 96 % 0 cb 1025,9 hPa 0,0 l/m 0,0 km/h (0 Bft) N 0 0 min 0,000 mm 0 W/m 8,0 C 8,6 C 0,0 km/h (0 Bft) 100,00 %
16.10.2017 07:40 8,6 C 8,6 C 8,7 C 97 % 0 cb 1025,8 hPa 0,0 l/m 0,0 km/h (0 Bft) N 0 0 min 0,000 mm 0 W/m 8,2 C 8,6 C 0,0 km/h (0 Bft) 100,00 %
16.10.2017 07:50 8,5 C 8,5 C 8,6 C 97 % 0 cb 1025,8 hPa 0,0 l/m 0,0 km/h (0 Bft) N 0 0 min 0,000 mm 0 W/m 8,1 C 8,5 C 0,0 km/h (0 Bft) 100,00 %
16.10.2017 08:00 8,4 C 8,4 C 8,5 C 97 % 0 cb 1025,9 hPa 0,0 l/m 0,0 km/h (0 Bft) N 0 0 min 0,000 mm 7 W/m 8,0 C 8,4 C 0,0 km/h (0 Bft) 100,00 %
16.10.2017 08:10 8,5 C 8,4 C 8,5 C 97 % 0 cb 1026,0 hPa 0,0 l/m 0,0 km/h (0 Bft) N 0 0 min 0,000 mm 14 W/m 8,1 C 8,5 C 0,0 km/h (0 Bft) 100,00 %
16.10.2017 08:20 8,6 C 8,5 C 8,6 C 97 % 0 cb 1026,0 hPa 0,0 l/m 0,0 km/h (0 Bft) N 0 0 min 0,000 mm 21 W/m 8,2 C 8,6 C 0,0 km/h (0 Bft) 100,00 %
16.10.2017 08:30 8,7 C 8,6 C 8,7 C 97 % 0 cb 1026,1 hPa 0,0 l/m 0,0 km/h (0 Bft) N 0 0 min 0,000 mm 30 W/m 8,3 C 8,7 C 0,0 km/h (0 Bft) 100,00 %
16.10.2017 08:40 8,7 C 8,7 C 8,7 C 97 % 0 cb 1026,1 hPa 0,0 l/m 0,0 km/h (0 Bft) N 0 0 min 0,000 mm 39 W/m 8,3 C 8,7 C 0,0 km/h (0 Bft) 100,00 %
16.10.2017 08:50 8,8 C 8,7 C 8,8 C 97 % 0 cb 1026,1 hPa 0,0 l/m 0,0 km/h (0 Bft) N 0 0 min 0,000 mm 47 W/m 8,4 C 8,8 C 0,0 km/h (0 Bft) 100,00 %
16.10.2017 09:00 8,8 C 8,8 C 8,8 C 97 % 0 cb 1026,2 hPa 0,0 l/m 0,0 km/h (0 Bft) N 0 0 min 0,025 mm 60 W/m 8,4 C 8,8 C 0,0 km/h (0 Bft) 100,00 %
16.10.2017 09:10 8,8 C 8,7 C 8,8 C 97 % 0 cb 1026,3 hPa 0,0 l/m 0,0 km/h (0 Bft) N 0 0 min 0,000 mm 91 W/m 8,4 C 8,8 C 0,0 km/h (0 Bft) 99,56 %
16.10.2017 09:20 9,1 C 8,8 C 9,1 C 97 % 0 cb 1026,3 hPa 0,0 l/m 0,0 km/h (0 Bft) N 0 0 min 0,000 mm 111 W/m 8,6 C 9,1 C 0,0 km/h (0 Bft) 100,00 %
16.10.2017 09:30 9,6 C 9,1 C 9,6 C 98 % 0 cb 1026,3 hPa 0,0 l/m 0,0 km/h (0 Bft) N 0 0 min 0,000 mm 132 W/m 9,3 C 9,6 C 0,0 km/h (0 Bft) 100,00 %
16.10.2017 09:40 10,2 C 9,6 C 10,2 C 98 % 0 cb 1026,5 hPa 0,0 l/m 0,0 km/h (0 Bft) N 0 0 min 0,000 mm 151 W/m 9,9 C 10,2 C 0,0 km/h (0 Bft) 100,00 %
16.10.2017 09:50 11,6 C 10,2 C 11,6 C 98 % 0 cb 1026,4 hPa 0,0 l/m 0,0 km/h (0 Bft) N 0 10 min 0,000 mm 171 W/m 11,3 C 11,6 C 0,0 km/h (0 Bft) 100,00 %
16.10.2017 10:00 11,9 C 11,6 C 11,9 C 98 % 0 cb 1026,6 hPa 0,0 l/m 0,0 km/h (0 Bft) N 0 10 min 0,051 mm 190 W/m 11,6 C 11,9 C 0,0 km/h (0 Bft) 100,00 %
16.10.2017 10:10 12,0 C 11,8 C 12,0 C 98 % 0 cb 1026,5 hPa 0,0 l/m 0,0 km/h (0 Bft) N 0 10 min 0,000 mm 213 W/m 11,7 C 12,0 C 0,0 km/h (0 Bft) 100,00 %
16.10.2017 10:20 12,7 C 12,0 C 12,7 C 98 % 0 cb 1026,7 hPa 0,0 l/m 0,0 km/h (0 Bft) N 0 10 min 0,000 mm 237 W/m 12,4 C 12,7 C 0,0 km/h (0 Bft) 100,00 %
16.10.2017 10:30 12,9 C 12,7 C 12,9 C 98 % 0 cb 1026,7 hPa 0,0 l/m 0,0 km/h (0 Bft) N 0 10 min 0,000 mm 258 W/m 12,6 C 12,9 C 0,0 km/h (0 Bft) 99,56 %
16.10.2017 10:40 13,4 C 12,9 C 13,4 C 98 % 0 cb 1026,7 hPa 0,0 l/m 0,0 km/h (0 Bft) O-NO 67 10 min 0,000 mm 272 W/m 13,1 C 13,4 C 3,2 km/h (1 Bft) 100,00 %
16.10.2017 10:50 14,1 C 13,4 C 14,1 C 96 % 0 cb 1026,6 hPa 0,0 l/m 1,6 km/h (1 Bft) O-SO 112 10 min 0,000 mm 295 W/m 13,5 C 14,1 C 4,8 km/h (1 Bft) 100,00 %
16.10.2017 11:00 14,7 C 14,2 C 14,7 C 93 % 0 cb 1026,5 hPa 0,0 l/m 0,0 km/h (0 Bft) O 90 10 min 0,127 mm 313 W/m 13,6 C 14,7 C 3,2 km/h (1 Bft) 100,00 %
16.10.2017 11:10 15,3 C 14,7 C 15,3 C 91 % 0 cb 1026,7 hPa 0,0 l/m 3,2 km/h (1 Bft) S-SO 157 10 min 0,000 mm 332 W/m 13,8 C 15,3 C 8,0 km/h (2 Bft) 100,00 %
16.10.2017 11:20 15,5 C 15,3 C 15,5 C 90 % 0 cb 1026,7 hPa 0,0 l/m 3,2 km/h (1 Bft) O 90 10 min 0,000 mm 355 W/m 13,9 C 15,5 C 6,4 km/h (2 Bft) 100,00 %
16.10.2017 11:30 15,8 C 15,4 C 15,8 C 88 % 0 cb 1026,7 hPa 0,0 l/m 1,6 km/h (1 Bft) O-SO 112 10 min 0,000 mm 371 W/m 13,8 C 15,8 C 4,8 km/h (1 Bft) 100,00 %
16.10.2017 11:40 16,2 C 15,8 C 16,2 C 85 % 0 cb 1026,6 hPa 0,0 l/m 1,6 km/h (1 Bft) S-SO 157 10 min 0,000 mm 385 W/m 13,7 C 16,2 C 4,8 km/h (1 Bft) 100,00 %
16.10.2017 11:50 16,8 C 16,3 C 16,8 C 84 % 0 cb 1026,6 hPa 0,0 l/m 1,6 km/h (1 Bft) S 180 10 min 0,000 mm 399 W/m 14,1 C 16,8 C 4,8 km/h (1 Bft) 100,00 %
16.10.2017 12:00 17,2 C 16,8 C 17,2 C 82 % 0 cb 1026,7 hPa 0,0 l/m 1,6 km/h (1 Bft) S-SO 157 10 min 0,203 mm 410 W/m 14,1 C 17,2 C 6,4 km/h (2 Bft) 100,00 %
16.10.2017 12:10 17,7 C 17,2 C 17,7 C 81 % 0 cb 1026,6 hPa 0,0 l/m 1,6 km/h (1 Bft) S 180 10 min 0,000 mm 418 W/m 14,4 C 17,7 C 6,4 km/h (2 Bft) 100,00 %
16.10.2017 12:20 18,2 C 17,7 C 18,2 C 78 % 0 cb 1026,5 hPa 0,0 l/m 1,6 km/h (1 Bft) S 180 10 min 0,000 mm 427 W/m 14,3 C 18,2 C 4,8 km/h (1 Bft) 100,00 %
16.10.2017 12:30 18,5 C 18,2 C 18,5 C 79 % 0 cb 1026,5 hPa 0,0 l/m 1,6 km/h (1 Bft) S 180 10 min 0,000 mm 434 W/m 14,8 C 18,5 C 6,4 km/h (2 Bft) 100,00 %
16.10.2017 12:40 18,8 C 18,6 C 18,8 C 76 % 0 cb 1026,4 hPa 0,0 l/m 3,2 km/h (1 Bft) S 180 10 min 0,000 mm 439 W/m 14,5 C 18,8 C 8,0 km/h (2 Bft) 100,00 %
16.10.2017 12:50 19,1 C 18,8 C 19,1 C 74 % 0 cb 1026,3 hPa 0,0 l/m 1,6 km/h (1 Bft) S 180 10 min 0,000 mm 443 W/m 14,4 C 19,1 C 4,8 km/h (1 Bft) 100,00 %
16.10.2017 13:00 19,3 C 19,1 C 19,3 C 75 % 0 cb 1026,2 hPa 0,0 l/m 1,6 km/h (1 Bft) W 270 10 min 0,254 mm 445 W/m 14,8 C 19,3 C 4,8 km/h (1 Bft) 100,00 %
16.10.2017 13:10 19,7 C 19,3 C 19,7 C 74 % 0 cb 1026,3 hPa 0,0 l/m 1,6 km/h (1 Bft) S 180 10 min 0,000 mm 445 W/m 14,9 C 19,7 C 6,4 km/h (2 Bft) 100,00 %
16.10.2017 13:20 20,2 C 19,8 C 20,2 C 69 % 0 cb 1026,2 hPa 0,0 l/m 4,8 km/h (1 Bft) S 180 10 min 0,000 mm 446 W/m 14,3 C 20,2 C 14,5 km/h (3 Bft) 100,00 %
16.10.2017 13:30 20,6 C 20,2 C 20,6 C 66 % 0 cb 1026,1 hPa 0,0 l/m 4,8 km/h (1 Bft) S-SW 202 10 min 0,000 mm 446 W/m 14,0 C 20,6 C 12,9 km/h (3 Bft) 100,00 %
16.10.2017 13:40 21,0 C 20,6 C 21,0 C 65 % 0 cb 1026,0 hPa 0,0 l/m 3,2 km/h (1 Bft) S-SW 202 10 min 0,000 mm 443 W/m 14,2 C 21,0 C 16,1 km/h (3 Bft) 100,00 %
16.10.2017 13:50 21,3 C 21,0 C 21,3 C 65 % 0 cb 1025,9 hPa 0,0 l/m 1,6 km/h (1 Bft) S 180 10 min 0,000 mm 445 W/m 14,4 C 21,3 C 6,4 km/h (2 Bft) 99,56 %
16.10.2017 14:00 21,5 C 21,3 C 21,5 C 61 % 0 cb 1025,7 hPa 0,0 l/m 3,2 km/h (1 Bft) S 180 10 min 0,279 mm 441 W/m 13,7 C 21,5 C 6,4 km/h (2 Bft) 100,00 %
16.10.2017 14:10 21,8 C 21,5 C 21,8 C 59 % 0 cb 1025,7 hPa 0,0 l/m 3,2 km/h (1 Bft) S-SW 202 10 min 0,000 mm 438 W/m 13,4 C 21,8 C 9,7 km/h (2 Bft) 100,00 %
16.10.2017 14:20 22,1 C 21,8 C 22,1 C 59 % 0 cb 1025,7 hPa 0,0 l/m 3,2 km/h (1 Bft) W 270 10 min 0,000 mm 429 W/m 13,7 C 22,1 C 9,7 km/h (2 Bft) 100,00 %
16.10.2017 14:30 22,4 C 22,1 C 22,4 C 57 % 0 cb 1025,5 hPa 0,0 l/m 3,2 km/h (1 Bft) S-SW 202 10 min 0,000 mm 424 W/m 13,5 C 22,4 C 8,0 km/h (2 Bft) 100,00 %
16.10.2017 14:40 22,7 C 22,4 C 22,7 C 57 % 0 cb 1025,5 hPa 0,0 l/m 3,2 km/h (1 Bft) S 180 10 min 0,000 mm 415 W/m 13,7 C 22,7 C 6,4 km/h (2 Bft) 100,00 %
16.10.2017 14:50 23,0 C 22,7 C 23,0 C 56 % 0 cb 1025,4 hPa 0,0 l/m 1,6 km/h (1 Bft) S 180 10 min 0,000 mm 390 W/m 13,7 C 23,0 C 4,8 km/h (1 Bft) 100,00 %
16.10.2017 15:00 23,2 C 23,0 C 23,3 C 57 % 0 cb 1025,3 hPa 0,0 l/m 1,6 km/h (1 Bft) S 180 10 min 0,254 mm 371 W/m 14,2 C 23,2 C 6,4 km/h (2 Bft) 100,00 %
16.10.2017 15:10 23,2 C 23,2 C 23,2 C 57 % 0 cb 1025,2 hPa 0,0 l/m 1,6 km/h (1 Bft) S-SO 157 10 min 0,000 mm 369 W/m 14,2 C 23,2 C 8,0 km/h (2 Bft) 100,00 %
16.10.2017 15:20 23,2 C 23,2 C 23,2 C 56 % 0 cb 1025,1 hPa 0,0 l/m 3,2 km/h (1 Bft) S 180 10 min 0,000 mm 360 W/m 13,9 C 23,2 C 9,7 km/h (2 Bft) 99,56 %
16.10.2017 15:30 23,3 C 23,2 C 23,3 C 55 % 0 cb 1025,0 hPa 0,0 l/m 3,2 km/h (1 Bft) S-SO 157 10 min 0,000 mm 345 W/m 13,7 C 23,3 C 8,0 km/h (2 Bft) 100,00 %
16.10.2017 15:40 23,3 C 23,3 C 23,3 C 55 % 0 cb 1024,9 hPa 0,0 l/m 3,2 km/h (1 Bft) S-SO 157 10 min 0,000 mm 322 W/m 13,7 C 23,3 C 9,7 km/h (2 Bft) 100,00 %
16.10.2017 15:50 23,4 C 23,3 C 23,4 C 54 % 0 cb 1024,9 hPa 0,0 l/m 4,8 km/h (1 Bft) S 180 10 min 0,000 mm 318 W/m 13,6 C 23,4 C 9,7 km/h (2 Bft) 100,00 %
16.10.2017 16:00 23,6 C 23,4 C 23,6 C 52 % 0 cb 1024,8 hPa 0,0 l/m 3,2 km/h (1 Bft) S 180 10 min 0,229 mm 285 W/m 13,2 C 23,6 C 6,4 km/h (2 Bft) 99,12 %
16.10.2017 16:10 23,5 C 23,5 C 23,6 C 52 % 0 cb 1024,9 hPa 0,0 l/m 3,2 km/h (1 Bft) S 180 10 min 0,000 mm 285 W/m 13,1 C 23,5 C 11,3 km/h (2 Bft) 98,68 %
16.10.2017 16:20 23,6 C 23,5 C 23,6 C 52 % 0 cb 1024,8 hPa 0,0 l/m 3,2 km/h (1 Bft) S 180 10 min 0,000 mm 264 W/m 13,2 C 23,6 C 11,3 km/h (2 Bft) 100,00 %
16.10.2017 16:30 23,7 C 23,6 C 23,7 C 51 % 0 cb 1024,6 hPa 0,0 l/m 3,2 km/h (1 Bft) S 180 10 min 0,000 mm 248 W/m 13,0 C 23,7 C 8,0 km/h (2 Bft) 100,00 %
16.10.2017 16:40 23,8 C 23,7 C 23,8 C 51 % 0 cb 1024,6 hPa 0,0 l/m 3,2 km/h (1 Bft) S 180 10 min 0,000 mm 225 W/m 13,0 C 23,8 C 8,0 km/h (2 Bft) 100,00 %
16.10.2017 16:50 23,7 C 23,7 C 23,8 C 52 % 0 cb 1024,6 hPa 0,0 l/m 3,2 km/h (1 Bft) S 180 10 min 0,000 mm 199 W/m 13,2 C 23,7 C 11,3 km/h (2 Bft) 100,00 %
16.10.2017 17:00 23,5 C 23,4 C 23,6 C 52 % 0 cb 1024,5 hPa 0,0 l/m 1,6 km/h (1 Bft) S 180 10 min 0,178 mm 174 W/m 13,1 C 23,5 C 8,0 km/h (2 Bft) 100,00 %
16.10.2017 17:10 23,5 C 23,5 C 23,6 C 52 % 0 cb 1024,4 hPa 0,0 l/m 3,2 km/h (1 Bft) S 180 0 min 0,000 mm 151 W/m 13,1 C 23,5 C 6,4 km/h (2 Bft) 100,00 %
16.10.2017 17:20 23,2 C 23,2 C 23,5 C 53 % 0 cb 1024,4 hPa 0,0 l/m 3,2 km/h (1 Bft) S 180 0 min 0,000 mm 127 W/m 13,1 C 23,2 C 8,0 km/h (2 Bft) 100,00 %
16.10.2017 17:30 23,1 C 23,1 C 23,2 C 54 % 0 cb 1024,2 hPa 0,0 l/m 1,6 km/h (1 Bft) S 180 0 min 0,000 mm 114 W/m 13,3 C 23,1 C 6,4 km/h (2 Bft) 100,00 %
16.10.2017 17:40 23,1 C 23,1 C 23,1 C 52 % 0 cb 1024,3 hPa 0,0 l/m 1,6 km/h (1 Bft) S-SO 157 0 min 0,000 mm 95 W/m 12,7 C 23,1 C 4,8 km/h (1 Bft) 100,00 %
16.10.2017 17:50 23,0 C 23,0 C 23,1 C 53 % 0 cb 1024,3 hPa 0,0 l/m 1,6 km/h (1 Bft) S 180 0 min 0,000 mm 74 W/m 12,9 C 23,0 C 4,8 km/h (1 Bft) 99,56 %
16.10.2017 18:00 22,8 C 22,8 C 23,0 C 54 % 0 cb 1024,3 hPa 0,0 l/m 1,6 km/h (1 Bft) S-SW 202 0 min 0,076 mm 54 W/m 13,0 C 22,8 C 4,8 km/h (1 Bft) 100,00 %
16.10.2017 18:10 22,5 C 22,5 C 22,8 C 55 % 0 cb 1024,3 hPa 0,0 l/m 0,0 km/h (0 Bft) S-SW 202 0 min 0,000 mm 37 W/m 13,0 C 22,5 C 1,6 km/h (1 Bft) 100,00 %
16.10.2017 18:20 21,8 C 21,8 C 22,5 C 59 % 0 cb 1024,2 hPa 0,0 l/m 0,0 km/h (0 Bft) N 0 0 min 0,000 mm 23 W/m 13,4 C 21,8 C 0,0 km/h (0 Bft) 100,00 %
16.10.2017 18:30 20,6 C 20,6 C 21,8 C 62 % 0 cb 1024,3 hPa 0,0 l/m 0,0 km/h (0 Bft) N 0 0 min 0,000 mm 16 W/m 13,1 C 20,6 C 0,0 km/h (0 Bft) 100,00 %
16.10.2017 18:40 19,7 C 19,7 C 20,6 C 64 % 0 cb 1024,3 hPa 0,0 l/m 0,0 km/h (0 Bft) O 90 0 min 0,000 mm 9 W/m 12,7 C 19,7 C 1,6 km/h (1 Bft) 100,00 %
16.10.2017 18:50 18,9 C 18,9 C 19,7 C 66 % 0 cb 1024,3 hPa 0,0 l/m 0,0 km/h (0 Bft) N 0 0 min 0,000 mm 0 W/m 12,4 C 18,9 C 0,0 km/h (0 Bft) 100,00 %
16.10.2017 19:00 18,2 C 18,2 C 18,9 C 68 % 0 cb 1024,3 hPa 0,0 l/m 0,0 km/h (0 Bft) O 90 0 min 0,025 mm 0 W/m 12,2 C 18,2 C 1,6 km/h (1 Bft) 100,00 %
16.10.2017 19:10 17,7 C 17,7 C 18,2 C 69 % 0 cb 1024,5 hPa 0,0 l/m 0,0 km/h (0 Bft) O 90 0 min 0,000 mm 0 W/m 11,9 C 17,7 C 1,6 km/h (1 Bft) 100,00 %
16.10.2017 19:20 17,3 C 17,3 C 17,7 C 70 % 0 cb 1024,5 hPa 0,0 l/m 0,0 km/h (0 Bft) N 0 0 min 0,000 mm 0 W/m 11,8 C 17,3 C 0,0 km/h (0 Bft) 100,00 %
16.10.2017 19:30 17,1 C 17,1 C 17,3 C 71 % 0 cb 1024,5 hPa 0,0 l/m 0,0 km/h (0 Bft) N 0 0 min 0,000 mm 0 W/m 11,8 C 17,1 C 0,0 km/h (0 Bft) 100,00 %
16.10.2017 19:40 16,7 C 16,7 C 17,1 C 72 % 0 cb 1024,6 hPa 0,0 l/m 0,0 km/h (0 Bft) O 90 0 min 0,000 mm 0 W/m 11,6 C 16,7 C 1,6 km/h (1 Bft) 100,00 %
16.10.2017 19:50 16,2 C 16,2 C 16,7 C 73 % 0 cb 1024,6 hPa 0,0 l/m 0,0 km/h (0 Bft) O 90 0 min 0,000 mm 0 W/m 11,4 C 16,2 C 3,2 km/h (1 Bft) 100,00 %
16.10.2017 20:00 16,1 C 16,1 C 16,2 C 74 % 0 cb 1024,7 hPa 0,0 l/m 1,6 km/h (1 Bft) O 90 0 min 0,025 mm 0 W/m 11,5 C 16,1 C 3,2 km/h (1 Bft) 100,00 %
16.10.2017 20:10 16,2 C 16,1 C 16,2 C 73 % 0 cb 1024,7 hPa 0,0 l/m 0,0 km/h (0 Bft) O 90 0 min 0,000 mm 0 W/m 11,4 C 16,2 C 3,2 km/h (1 Bft) 100,00 %
16.10.2017 20:20 15,9 C 15,9 C 16,2 C 74 % 0 cb 1024,7 hPa 0,0 l/m 0,0 km/h (0 Bft) N 0 0 min 0,000 mm 0 W/m 11,3 C 15,9 C 0,0 km/h (0 Bft) 99,56 %
16.10.2017 20:30 15,5 C 15,5 C 15,9 C 76 % 0 cb 1024,7 hPa 0,0 l/m 0,0 km/h (0 Bft) N 0 0 min 0,000 mm 0 W/m 11,3 C 15,5 C 0,0 km/h (0 Bft) 100,00 %
16.10.2017 20:40 15,1 C 15,1 C 15,5 C 77 % 0 cb 1024,8 hPa 0,0 l/m 0,0 km/h (0 Bft) N 0 0 min 0,000 mm 0 W/m 11,1 C 15,1 C 0,0 km/h (0 Bft) 100,00 %
16.10.2017 20:50 14,8 C 14,8 C 15,1 C 78 % 0 cb 1024,7 hPa 0,0 l/m 0,0 km/h (0 Bft) N 0 0 min 0,000 mm 0 W/m 11,0 C 14,8 C 0,0 km/h (0 Bft) 100,00 %
16.10.2017 21:00 14,7 C 14,7 C 14,9 C 79 % 0 cb 1024,8 hPa 0,0 l/m 0,0 km/h (0 Bft) N 0 0 min 0,025 mm 0 W/m 11,1 C 14,7 C 0,0 km/h (0 Bft) 100,00 %
16.10.2017 21:10 14,4 C 14,4 C 14,7 C 80 % 0 cb 1024,8 hPa 0,0 l/m 0,0 km/h (0 Bft) N 0 0 min 0,000 mm 0 W/m 11,0 C 14,4 C 0,0 km/h (0 Bft) 100,00 %
16.10.2017 21:20 14,1 C 14,1 C 14,4 C 81 % 0 cb 1024,8 hPa 0,0 l/m 0,0 km/h (0 Bft) N 0 0 min 0,000 mm 0 W/m 10,9 C 14,1 C 0,0 km/h (0 Bft) 100,00 %
16.10.2017 21:30 13,9 C 13,9 C 14,1 C 81 % 0 cb 1024,8 hPa 0,0 l/m 0,0 km/h (0 Bft) N 0 0 min 0,000 mm 0 W/m 10,7 C 13,9 C 0,0 km/h (0 Bft) 100,00 %
16.10.2017 21:40 13,7 C 13,7 C 13,9 C 82 % 0 cb 1024,8 hPa 0,0 l/m 0,0 km/h (0 Bft) N 0 0 min 0,000 mm 0 W/m 10,7 C 13,7 C 0,0 km/h (0 Bft) 99,12 %
16.10.2017 21:50 13,7 C 13,7 C 13,7 C 82 % 0 cb 1024,8 hPa 0,0 l/m 0,0 km/h (0 Bft) N 0 0 min 0,000 mm 0 W/m 10,7 C 13,7 C 0,0 km/h (0 Bft) 100,00 %
16.10.2017 22:00 13,8 C 13,7 C 13,8 C 83 % 0 cb 1024,8 hPa 0,0 l/m 0,0 km/h (0 Bft) O 90 0 min 0,025 mm 0 W/m 11,0 C 13,8 C 3,2 km/h (1 Bft) 100,00 %
16.10.2017 22:10 13,6 C 13,6 C 13,8 C 83 % 0 cb 1024,9 hPa 0,0 l/m 0,0 km/h (0 Bft) N 0 0 min 0,000 mm 0 W/m 10,8 C 13,6 C 0,0 km/h (0 Bft) 100,00 %
16.10.2017 22:20 13,4 C 13,4 C 13,6 C 84 % 0 cb 1024,8 hPa 0,0 l/m 0,0 km/h (0 Bft) O 90 0 min 0,000 mm 0 W/m 10,8 C 13,4 C 1,6 km/h (1 Bft) 100,00 %
16.10.2017 22:30 13,2 C 13,2 C 13,4 C 85 % 0 cb 1024,9 hPa 0,0 l/m 0,0 km/h (0 Bft) O 90 0 min 0,000 mm 0 W/m 10,7 C 13,2 C 1,6 km/h (1 Bft) 100,00 %
16.10.2017 22:40 13,1 C 13,1 C 13,2 C 85 % 0 cb 1024,9 hPa 0,0 l/m 0,0 km/h (0 Bft) N 0 0 min 0,000 mm 0 W/m 10,6 C 13,1 C 0,0 km/h (0 Bft) 100,00 %
16.10.2017 22:50 13,0 C 13,0 C 13,1 C 85 % 0 cb 1024,9 hPa 0,0 l/m 0,0 km/h (0 Bft) N 0 0 min 0,000 mm 0 W/m 10,5 C 13,0 C 0,0 km/h (0 Bft) 100,00 %
16.10.2017 23:00 13,1 C 13,0 C 13,1 C 85 % 0 cb 1024,9 hPa 0,0 l/m 0,0 km/h (0 Bft) N 0 0 min 0,000 mm 0 W/m 10,6 C 13,1 C 0,0 km/h (0 Bft) 100,00 %
16.10.2017 23:10 13,0 C 13,0 C 13,1 C 85 % 0 cb 1025,0 hPa 0,0 l/m 0,0 km/h (0 Bft) N 0 0 min 0,000 mm 0 W/m 10,5 C 13,0 C 0,0 km/h (0 Bft) 100,00 %
16.10.2017 23:20 13,1 C 13,0 C 13,1 C 86 % 0 cb 1024,9 hPa 0,0 l/m 0,0 km/h (0 Bft) N 0 0 min 0,000 mm 0 W/m 10,8 C 13,1 C 0,0 km/h (0 Bft) 100,00 %
16.10.2017 23:30 13,0 C 13,0 C 13,1 C 86 % 0 cb 1024,9 hPa 0,0 l/m 0,0 km/h (0 Bft) N 0 0 min 0,000 mm 0 W/m 10,7 C 13,0 C 0,0 km/h (0 Bft) 100,00 %
16.10.2017 23:40 12,9 C 12,9 C 13,0 C 86 % 0 cb 1025,0 hPa 0,0 l/m 0,0 km/h (0 Bft) N 0 0 min 0,000 mm 0 W/m 10,6 C 12,9 C 0,0 km/h (0 Bft) 100,00 %
16.10.2017 23:50 12,9 C 12,8 C 12,9 C 86 % 0 cb 1024,9 hPa 0,0 l/m 0,0 km/h (0 Bft) N 0 0 min 0,000 mm 0 W/m 10,6 C 12,9 C 0,0 km/h (0 Bft) 99,12 %
_ Min-Zeit 08:00 08:00 08:00 16:30 00:00 17:30 - 00:00 - - - - - 08:00 08:00 00:00 07:10
Minimum _ 8,4 C 8,4 C 8,5 C 51 % 0 cb 1024,2 hPa - 0,0 km/h (0 Bft) - - - - - 8,0 C 8,4 C 0,0 km/h (0 Bft) 98,25 %
_ Max-Zeit 16:40 16:40 16:40 09:30 00:00 10:20 00:00 13:20 - - 09:50 14:00 13:20 13:10 16:40 13:40 00:00
Maximum _ 23,8 C 23,7 C 23,8 C 98 % 0 cb 1026,7 hPa 0,0 l/m 4,8 km/h
S (1 Bft)
- - 10 min 0,279 mm 446 W/m 14,9 C 23,8 C 16,1 km/h
S (3 Bft)
100,00 %
Durchschnitt _ 14,7 C 14,5 C 14,8 C 82 % 0 cb 1025,6 hPa #0,0 l/m 0,8 km/h (0 Bft) S - #7:20 h #1,776 mm 257 W/m 11,2 C 14,7 C 2,6 km/h (1 Bft) 99,94 %
Wetterstation Gdesweiler